Time;durP1;ratioP1;P1;durP2;ratioP2;P2;SDS_P1;SDS_P2;PMS_P1;PMS_P2;Temp;Humidity;BMP_temperature;BMP_pressure;BME280_temperature;BME280_humidity;BME280_pressure;Samples;Min_cycle;Max_cycle;Signal;HPM_P1;HPM_P2
2023/07/31 00:01:14;;;;;;;4.82;2.85;;;;;;;;;;5084269;28;20024;-57
2023/07/31 00:03:40;;;;;;;5.85;2.80;;;;;;;;;;5083585;28;20040;-49
2023/07/31 00:06:11;;;;;;;5.40;3.63;;;;;;;;;;5083940;28;20017;-50
2023/07/31 00:08:38;;;;;;;5.20;3.60;;;;;;;;;;5083874;28;20347;-53
2023/07/31 00:11:04;;;;;;;5.70;3.67;;;;;;;;;;5083953;28;20024;-50
2023/07/31 00:13:31;;;;;;;5.90;3.40;;;;;;;;;;5084038;28;20336;-48
2023/07/31 00:15:58;;;;;;;4.05;3.22;;;;;;;;;;5083438;28;20020;-52
2023/07/31 00:18:25;;;;;;;5.15;3.05;;;;;;;;;;5083854;28;20044;-51
2023/07/31 00:20:51;;;;;;;6.30;3.00;;;;;;;;;;5084347;28;20016;-50
2023/07/31 00:23:18;;;;;;;2.65;2.45;;;;;;;;;;5086348;28;20035;-54
2023/07/31 00:25:45;;;;;;;4.63;2.40;;;;;;;;;;5087955;28;20028;-50
2023/07/31 00:28:11;;;;;;;5.78;2.30;;;;;;;;;;5087617;28;20020;-52
2023/07/31 00:30:38;;;;;;;2.83;2.38;;;;;;;;;;5087601;28;20097;-49
2023/07/31 00:33:05;;;;;;;3.40;2.50;;;;;;;;;;5087619;28;20044;-52
2023/07/31 00:35:32;;;;;;;3.92;2.38;;;;;;;;;;5087180;28;20031;-53
2023/07/31 00:37:59;;;;;;;3.35;2.33;;;;;;;;;;5076591;28;20031;-52
2023/07/31 00:40:26;;;;;;;7.70;2.70;;;;;;;;;;5055073;28;20037;-50
2023/07/31 00:42:52;;;;;;;3.90;2.58;;;;;;;;;;5055185;28;20025;-50
2023/07/31 00:45:22;;;;;;;11.10;2.90;;;;;;;;;;5056351;28;20037;-54
2023/07/31 00:47:52;;;;;;;3.72;2.55;;;;;;;;;;5047398;28;20033;-51
2023/07/31 00:50:19;;;;;;;3.47;2.38;;;;;;;;;;5051576;28;20083;-47
2023/07/31 00:52:46;;;;;;;6.30;2.20;;;;;;;;;;5063456;28;20033;-46
2023/07/31 00:55:12;;;;;;;3.42;2.40;;;;;;;;;;5065554;28;20043;-49
2023/07/31 00:57:42;;;;;;;5.57;2.22;;;;;;;;;;5063004;28;20021;-52
2023/07/31 01:00:09;;;;;;;3.95;2.35;;;;;;;;;;5055502;28;20026;-51
2023/07/31 01:02:36;;;;;;;3.55;2.10;;;;;;;;;;5046839;28;20044;-46
2023/07/31 01:05:04;;;;;;;2.60;2.17;;;;;;;;;;5046859;28;20014;-52
2023/07/31 01:07:42;;;;;;;3.10;2.00;;;;;;;;;;5051149;28;20021;-58
2023/07/31 01:10:24;;;;;;;3.17;2.10;;;;;;;;;;5055074;28;20033;-46
2023/07/31 01:12:54;;;;;;;5.15;2.40;;;;;;;;;;5046258;28;20224;-49
2023/07/31 01:15:21;;;;;;;3.97;2.08;;;;;;;;;;5046395;28;20029;-48
2023/07/31 01:17:48;;;;;;;4.20;2.38;;;;;;;;;;5045961;28;20083;-48
2023/07/31 01:20:18;;;;;;;4.22;2.20;;;;;;;;;;5046256;28;20028;-52
2023/07/31 01:23:03;;;;;;;4.25;2.28;;;;;;;;;;5061766;28;20371;-48
2023/07/31 01:25:45;;;;;;;14.48;2.90;;;;;;;;;;5046073;28;20024;-62
2023/07/31 01:28:16;;;;;;;3.83;2.35;;;;;;;;;;5046198;28;20025;-50
2023/07/31 01:30:45;;;;;;;4.07;2.47;;;;;;;;;;5048729;28;20018;-47
2023/07/31 01:33:12;;;;;;;4.07;2.60;;;;;;;;;;5057354;28;20033;-48
2023/07/31 01:35:39;;;;;;;3.63;2.03;;;;;;;;;;5052838;28;20025;-48
2023/07/31 01:38:06;;;;;;;3.80;2.30;;;;;;;;;;5056796;28;20058;-51
2023/07/31 01:40:33;;;;;;;3.08;2.13;;;;;;;;;;5052127;28;20214;-48
2023/07/31 01:43:05;;;;;;;4.93;2.33;;;;;;;;;;5054062;28;20344;-52
2023/07/31 01:45:35;;;;;;;3.53;2.20;;;;;;;;;;5046311;28;20022;-48
2023/07/31 01:48:01;;;;;;;5.78;2.10;;;;;;;;;;5056962;28;20043;-55
2023/07/31 01:50:28;;;;;;;3.67;2.10;;;;;;;;;;5048546;28;20029;-51
2023/07/31 01:52:54;;;;;;;2.80;1.90;;;;;;;;;;5045246;28;20053;-50
2023/07/31 01:55:21;;;;;;;2.85;1.85;;;;;;;;;;5045304;28;20033;-51
2023/07/31 01:57:48;;;;;;;3.75;2.00;;;;;;;;;;5044990;28;20026;-50
2023/07/31 02:00:15;;;;;;;2.08;1.70;;;;;;;;;;5045430;28;20049;-50
2023/07/31 02:02:41;;;;;;;3.80;2.67;;;;;;;;;;5044494;28;20053;-52
2023/07/31 02:05:13;;;;;;;3.25;2.28;;;;;;;;;;5060769;28;20071;-52
2023/07/31 02:07:40;;;;;;;3.05;2.35;;;;;;;;;;5045538;28;20270;-50
2023/07/31 02:10:07;;;;;;;2.58;2.15;;;;;;;;;;5045102;28;20037;-50
2023/07/31 02:12:36;;;;;;;2.97;2.38;;;;;;;;;;5044913;28;20064;-46
2023/07/31 02:15:03;;;;;;;4.90;2.20;;;;;;;;;;5044984;28;20032;-51
2023/07/31 02:17:42;;;;;;;2.92;2.20;;;;;;;;;;5059946;28;20037;-52
2023/07/31 02:20:09;;;;;;;3.95;2.45;;;;;;;;;;5062802;28;20028;-49
2023/07/31 02:22:36;;;;;;;3.45;2.20;;;;;;;;;;5064658;28;20100;-51
2023/07/31 02:25:03;;;;;;;3.63;2.20;;;;;;;;;;5064589;28;20084;-47
2023/07/31 02:27:29;;;;;;;3.38;2.10;;;;;;;;;;5064873;28;20020;-46
2023/07/31 02:29:57;;;;;;;2.50;2.15;;;;;;;;;;5064407;28;20332;-44
2023/07/31 02:32:24;;;;;;;2.88;2.30;;;;;;;;;;5066655;28;20021;-47
2023/07/31 02:34:51;;;;;;;3.20;1.90;;;;;;;;;;5064433;28;20029;-51
2023/07/31 02:37:17;;;;;;;5.65;2.22;;;;;;;;;;5061330;28;20292;-47
2023/07/31 02:39:44;;;;;;;3.63;2.00;;;;;;;;;;5053169;28;20317;-49
2023/07/31 02:42:13;;;;;;;4.28;2.05;;;;;;;;;;5044401;28;20025;-46
2023/07/31 02:44:40;;;;;;;3.03;1.90;;;;;;;;;;5044260;28;20054;-45
2023/07/31 02:47:07;;;;;;;2.85;1.88;;;;;;;;;;5044433;28;20031;-54
2023/07/31 02:49:35;;;;;;;2.22;1.83;;;;;;;;;;5055470;28;20056;-52
2023/07/31 02:52:01;;;;;;;3.75;2.30;;;;;;;;;;5054849;28;20041;-52
2023/07/31 02:54:28;;;;;;;4.10;1.90;;;;;;;;;;5044718;28;20026;-51
2023/07/31 02:56:55;;;;;;;3.58;2.08;;;;;;;;;;5044446;28;20080;-50
2023/07/31 02:59:22;;;;;;;2.63;2.00;;;;;;;;;;5044584;28;20033;-48
2023/07/31 03:01:48;;;;;;;4.10;2.13;;;;;;;;;;5044459;28;20076;-50
2023/07/31 03:04:15;;;;;;;5.13;2.08;;;;;;;;;;5044701;28;20360;-47
2023/07/31 03:06:42;;;;;;;4.90;2.30;;;;;;;;;;5044622;28;20033;-48
2023/07/31 03:09:08;;;;;;;2.92;2.35;;;;;;;;;;5059854;28;20026;-52
2023/07/31 03:11:35;;;;;;;3.47;2.03;;;28.60;99.90;;;;;;5044305;28;20014;-52
2023/07/31 03:14:02;;;;;;;3.83;2.35;;;28.50;99.90;;;;;;5043343;28;20071;-48
2023/07/31 03:16:28;;;;;;;4.35;2.80;;;28.50;99.90;;;;;;5044605;28;20074;-48
2023/07/31 03:18:56;;;;;;;8.80;3.70;;;;;;;;;;5044734;28;20021;-50
2023/07/31 03:21:23;;;;;;;5.32;3.42;;;;;;;;;;5044308;28;20038;-53
2023/07/31 03:23:49;;;;;;;4.72;2.92;;;;;;;;;;5044240;28;20419;-48
2023/07/31 03:26:16;;;;;;;4.82;2.70;;;;;;;;;;5045711;28;20083;-45
2023/07/31 03:28:43;;;;;;;2.83;2.38;;;;;;;;;;5053151;28;20057;-49
2023/07/31 03:31:09;;;;;;;3.28;2.38;;;;;;;;;;5044016;28;20032;-49
2023/07/31 03:33:36;;;;;;;3.22;2.50;;;;;;;;;;5060139;28;20224;-50
2023/07/31 03:36:03;;;;;;;3.35;2.03;;;;;;;;;;5044391;28;20045;-49
2023/07/31 03:38:29;;;;;;;3.15;2.20;;;;;;;;;;5044460;28;20085;-47
2023/07/31 03:40:58;;;;;;;2.15;1.95;;;;;;;;;;5050981;28;20060;-50
2023/07/31 03:43:25;;;;;;;3.92;2.05;;;;;;;;;;5058041;28;20037;-46
2023/07/31 03:45:52;;;;;;;3.30;1.92;;;;;;;;;;5043982;28;20029;-47
2023/07/31 03:48:18;;;;;;;2.28;2.08;;;;;;;;;;5050781;28;20084;-46
2023/07/31 03:50:45;;;;;;;2.70;1.70;;;;;;;;;;5060993;28;20041;-47
2023/07/31 03:53:12;;;;;;;4.53;1.90;;;;;;;;;;5055337;28;20298;-51
2023/07/31 03:55:41;;;;;;;3.05;2.10;;;;;;;;;;5052239;28;20041;-46
2023/07/31 03:58:07;;;;;;;2.92;1.90;;;;;;;;;;5063758;28;20036;-48
2023/07/31 04:00:34;;;;;;;2.60;1.98;;;;;;;;;;5052765;28;20329;-45
2023/07/31 04:03:01;;;;;;;3.15;1.95;;;;;;;;;;5062474;28;20076;-46
2023/07/31 04:05:28;;;;;;;3.33;2.00;;;;;;;;;;5046974;28;20033;-50
2023/07/31 04:07:54;;;;;;;3.47;1.85;;;;;;;;;;5064027;28;20025;-45
2023/07/31 04:10:21;;;;;;;3.05;1.90;;;;;;;;;;5055884;28;20056;-47
2023/07/31 04:12:48;;;;;;;1.88;1.60;;;;;;;;;;5047375;28;20092;-54
2023/07/31 04:15:14;;;;;;;3.47;1.75;;;;;;;;;;5047130;28;20021;-46
2023/07/31 04:17:41;;;;;;;1.90;1.65;;;;;;;;;;5050203;28;20288;-52
2023/07/31 04:20:08;;;;;;;3.88;1.77;;;;;;;;;;5056944;28;20088;-48
2023/07/31 04:22:34;;;;;;;4.35;1.83;;;;;;;;;;5058310;28;20025;-48
2023/07/31 04:25:01;;;;;;;2.28;2.08;;;;;;;;;;5067035;28;20012;-49
2023/07/31 04:27:28;;;;;;;4.03;1.90;;;;;;;;;;5066078;28;20044;-54
2023/07/31 04:29:54;;;;;;;3.45;2.15;;;;;;;;;;5066486;28;20025;-53
2023/07/31 04:32:21;;;;;;;2.65;1.90;;;;;;;;;;5066769;28;20043;-50
2023/07/31 04:34:48;;;;;;;4.35;1.90;;;;;;;;;;5066764;28;20041;-51
2023/07/31 04:37:14;;;;;;;3.75;1.77;;;;;;;;;;5066625;28;20349;-50
2023/07/31 04:39:41;;;;;;;2.58;1.60;;;;;;;;;;5066484;28;20071;-48
2023/07/31 04:42:08;;;;;;;2.33;1.80;;;;;;;;;;5066771;28;20032;-53
2023/07/31 04:44:34;;;;;;;4.00;1.60;;;;;;;;;;5066481;28;20051;-49
2023/07/31 04:47:02;;;;;;;3.42;2.10;;;;;;;;;;5066581;28;20045;-47
2023/07/31 04:49:28;;;;;;;2.58;1.90;;;;;;;;;;5066753;28;20037;-45
2023/07/31 04:51:55;;;;;;;2.75;1.95;;;;;;;;;;5066819;28;20012;-44
2023/07/31 04:54:22;;;;;;;1.83;1.50;;;;;;;;;;5065280;28;20328;-46
2023/07/31 04:56:48;;;;;;;4.75;2.22;;;;;;;;;;5057297;28;20133;-49
2023/07/31 04:59:15;;;;;;;2.85;1.77;;;;;;;;;;5046542;28;20025;-45
2023/07/31 05:01:42;;;;;;;5.20;1.90;;;;;;;;;;5046343;28;20021;-51
2023/07/31 05:04:09;;;;;;;3.40;2.13;;;;;;;;;;5046425;28;20072;-45
2023/07/31 05:06:36;;;;;;;3.63;1.85;;;;;;;;;;5051984;28;20089;-54
2023/07/31 05:09:02;;;;;;;4.65;1.80;;;;;;;;;;5057734;28;20256;-55
2023/07/31 05:11:29;;;;;;;5.30;1.92;;;;;;;;;;5046145;28;20041;-47
2023/07/31 05:13:55;;;;;;;5.95;2.75;;;;;;;;;;5046376;28;20020;-49
2023/07/31 05:16:22;;;;;;;3.00;1.92;;;;;;;;;;5054327;28;20021;-50
2023/07/31 05:18:49;;;;;;;3.30;1.75;;;;;;;;;;5054403;28;20301;-48
2023/07/31 05:21:15;;;;;;;2.30;1.75;;;;;;;;;;5045947;28;20041;-58
2023/07/31 05:23:42;;;;;;;2.33;1.60;;;;;;;;;;5045858;28;20059;-48
2023/07/31 05:26:11;;;;;;;2.83;1.70;;;;;;;;;;5053241;28;20063;-49
2023/07/31 05:28:38;;;;;;;3.17;1.73;;;;;;;;;;5054927;28;20028;-49
2023/07/31 05:31:06;;;;;;;2.22;1.73;;;;;;;;;;5045812;28;20021;-45
2023/07/31 05:33:33;;;;;;;2.85;1.90;;;;;;;;;;5045899;28;20029;-53
2023/07/31 05:36:00;;;;;;;3.35;1.50;;;;;;;;;;5045622;28;20030;-47
2023/07/31 05:38:27;;;;;;;2.15;1.55;;;;;;;;;;5053263;28;20028;-48
2023/07/31 05:40:53;;;;;;;2.72;1.58;;;;;;;;;;5073454;28;20055;-50
2023/07/31 05:43:20;;;;;;;4.00;1.90;;;;;;;;;;5070870;28;20348;-51
2023/07/31 05:45:46;;;;;;;4.72;1.88;;;;;;;;;;5067685;28;20029;-52
2023/07/31 05:48:13;;;;;;;4.45;1.90;;;;;;;;;;5071337;28;20033;-49
2023/07/31 05:50:40;;;;;;;3.85;1.58;;;;;;;;;;5071720;28;20028;-51
2023/07/31 05:53:07;;;;;;;3.10;1.65;;;;;;;;;;5072332;28;20243;-47
2023/07/31 05:55:34;;;;;;;4.45;1.50;;;;;;;;;;5061309;28;20045;-47
2023/07/31 05:58:01;;;;;;;3.92;1.80;;;;;;;;;;5078466;28;20024;-56
2023/07/31 06:00:28;;;;;;;2.63;1.80;;;;;;;;;;5062744;28;20365;-45
2023/07/31 06:02:54;;;;;;;4.10;1.40;;;;;;;;;;5054188;28;20203;-46
2023/07/31 06:05:21;;;;;;;2.47;1.58;;;;;;;;;;5075338;28;20024;-44
2023/07/31 06:07:48;;;;;;;1.77;1.40;;;;;;;;;;5065137;28;20340;-46
2023/07/31 06:10:14;;;;;;;3.33;1.60;;;;;;;;;;5064618;28;20096;-44
2023/07/31 06:12:41;;;;;;;3.20;1.60;;;;;;;;;;5074302;28;20038;-58
2023/07/31 06:15:07;;;;;;;2.75;1.40;;;;;;;;;;5083669;28;20092;-56
2023/07/31 06:17:34;;;;;;;4.03;1.60;;;;;;;;;;5084683;28;20052;-55
2023/07/31 06:20:01;;;;;;;3.17;1.55;;;;;;;;;;5083289;28;20177;-57
2023/07/31 06:22:27;;;;;;;1.98;1.35;;;;;;;;;;5084847;28;20033;-46
2023/07/31 06:24:54;;;;;;;2.78;1.25;;;;;;;;;;5084367;28;20024;-46
2023/07/31 06:27:21;;;;;;;2.13;1.40;;;;;;;;;;5084731;28;20024;-44
2023/07/31 06:29:48;;;;;;;3.38;1.35;;;;;;;;;;5084575;28;20240;-47
2023/07/31 06:32:14;;;;;;;1.60;1.42;;;;;;;;;;5069671;28;20029;-47
2023/07/31 06:34:41;;;;;;;2.80;1.40;;;;;;;;;;5064709;28;20031;-48
2023/07/31 06:37:07;;;;;;;5.18;1.60;;;;;;;;;;5064377;28;20029;-47
2023/07/31 06:39:34;;;;;;;4.18;1.42;;;;;;;;;;5064194;28;20218;-51
2023/07/31 06:42:01;;;;;;;2.25;1.50;;;;;;;;;;5064503;28;20126;-50
2023/07/31 06:44:28;;;;;;;3.15;1.33;;;;;;;;;;5064574;28;20049;-46
2023/07/31 06:46:54;;;;;;;5.22;1.77;;;;;;;;;;5064578;28;20029;-56
2023/07/31 06:49:21;;;;;;;2.65;1.40;;;;;;;;;;5064750;28;20037;-49
2023/07/31 06:51:49;;;;;;;3.33;1.20;;;;;;;;;;5064240;28;20017;-45
2023/07/31 06:54:15;;;;;;;2.88;1.40;;;;;;;;;;5064618;28;20084;-52
2023/07/31 06:56:42;;;;;;;4.13;1.35;;;;;;;;;;5064422;28;20012;-46
2023/07/31 06:59:09;;;;;;;2.75;1.40;;;;;;;;;;5064154;28;20024;-49
2023/07/31 07:01:36;;;;;;;3.05;1.40;;;;;;;;;;5064332;28;20244;-48
2023/07/31 07:04:02;;;;;;;3.60;1.48;;;;;;;;;;5064357;28;20032;-53
2023/07/31 07:06:29;;;;;;;9.02;1.48;;;;;;;;;;5064099;28;20028;-52
2023/07/31 07:08:55;;;;;;;6.72;1.75;;;;;;;;;;5064394;28;20320;-51
2023/07/31 07:11:22;;;;;;;2.53;1.30;;;;;;;;;;5064137;28;20313;-47
2023/07/31 07:13:49;;;;;;;2.00;1.30;;;;;;;;;;5064964;28;20035;-49
2023/07/31 07:16:15;;;;;;;4.88;1.50;;;;;;;;;;5063268;28;20224;-51
2023/07/31 07:18:42;;;;;;;1.77;1.33;;;;;;;;;;5064389;28;20027;-47
2023/07/31 07:21:09;;;;;;;4.25;1.58;;;;;;;;;;5063999;28;20028;-47
2023/07/31 07:23:35;;;;;;;4.45;1.33;;;;;;;;;;5064562;28;20029;-47
2023/07/31 07:26:02;;;;;;;3.78;1.52;;;;;;;;;;5064572;28;20071;-51
2023/07/31 07:28:29;;;;;;;2.83;1.80;;;;;;;;;;5064719;28;20292;-50
2023/07/31 07:30:56;;;;;;;3.03;1.50;;;;;;;;;;5063756;28;20264;-52
2023/07/31 07:33:22;;;;;;;2.20;1.45;;;;;;;;;;5065555;28;20021;-53
2023/07/31 07:35:49;;;;;;;4.07;1.27;;;;;;;;;;5068157;28;20025;-48
2023/07/31 07:38:16;;;;;;;5.90;1.80;;;;;;;;;;5068136;28;20305;-48
2023/07/31 07:40:43;;;;;;;5.07;1.60;;;;;;;;;;5067692;28;20021;-50
2023/07/31 07:43:09;;;;;;;2.13;1.50;;;;;;;;;;5067569;28;20009;-49
2023/07/31 07:45:36;;;;;;;2.08;1.50;;;;;;;;;;5067650;28;20052;-46
2023/07/31 07:48:02;;;;;;;4.30;1.80;;;;;;;;;;5067578;28;20029;-52
2023/07/31 07:50:29;;;;;;;4.35;1.80;;;;;;;;;;5067949;28;20028;-48
2023/07/31 07:52:56;;;;;;;2.78;1.58;;;;;;;;;;5068178;28;20055;-47
2023/07/31 07:55:23;;;;;;;3.13;1.63;;;;;;;;;;5067681;28;20029;-46
2023/07/31 07:57:50;;;;;;;4.20;1.92;;;;;;;;;;5068053;28;20067;-45
2023/07/31 08:00:17;;;;;;;5.13;1.90;;;;;;;;;;5067650;28;20029;-45
2023/07/31 08:02:44;;;;;;;3.85;1.92;;;;;;;;;;5067392;28;20024;-50
2023/07/31 08:05:12;;;;;;;4.80;1.48;;;;;;;;;;5067420;28;20029;-50
2023/07/31 08:07:39;;;;;;;2.78;1.52;;;;;;;;;;5067651;28;20025;-50
2023/07/31 08:10:07;;;;;;;2.05;1.35;;;;;;;;;;5067392;28;20020;-51
2023/07/31 08:12:34;;;;;;;3.30;1.50;;;;;;;;;;5067351;28;20024;-52
2023/07/31 08:15:02;;;;;;;2.83;1.35;;;;;;;;;;5067493;28;20039;-53
2023/07/31 08:17:29;;;;;;;3.53;1.80;;;28.20;99.90;;;;;;5067104;28;20025;-49
2023/07/31 08:19:58;;;;;;;3.35;1.27;;;28.00;99.90;;;;;;5067427;28;20017;-52
2023/07/31 08:22:25;;;;;;;2.80;1.70;;;28.10;99.90;;;;;;5067150;28;20037;-44
2023/07/31 08:24:52;;;;;;;3.15;1.60;;;28.10;99.90;;;;;;5067205;28;20255;-50
2023/07/31 08:27:18;;;;;;;4.45;1.40;;;28.10;99.90;;;;;;5067079;28;20288;-51
2023/07/31 08:29:45;;;;;;;3.35;1.55;;;28.00;99.90;;;;;;5066861;28;20048;-47
2023/07/31 08:32:11;;;;;;;4.00;1.60;;;28.10;99.90;;;;;;5066672;28;20066;-49
2023/07/31 08:34:38;;;;;;;3.45;1.40;;;28.00;99.90;;;;;;5066960;28;20029;-49
2023/07/31 08:37:04;;;;;;;5.22;1.65;;;28.10;99.90;;;;;;5067007;28;20024;-48
2023/07/31 08:39:31;;;;;;;3.47;1.80;;;;;;;;;;5066953;28;20162;-49
2023/07/31 08:42:01;;;;;;;4.20;1.92;;;28.10;99.90;;;;;;5066541;28;20044;-49
2023/07/31 08:44:29;;;;;;;4.22;1.70;;;28.00;99.90;;;;;;5066506;28;20049;-47
2023/07/31 08:46:56;;;;;;;3.75;1.80;;;28.00;99.90;;;;;;5066586;28;20016;-50
2023/07/31 08:49:23;;;;;;;4.55;2.00;;;28.00;99.90;;;;;;5067087;28;20127;-46
2023/07/31 08:51:51;;;;;;;4.40;2.00;;;;;;;;;;5066351;28;20033;-46
2023/07/31 08:54:17;;;;;;;8.48;1.88;;;;;;;;;;5066898;28;20180;-51
2023/07/31 08:56:45;;;;;;;3.00;1.70;;;28.40;99.90;;;;;;5066693;28;20029;-46
2023/07/31 08:59:14;;;;;;;3.83;1.85;;;28.10;99.90;;;;;;5066689;28;20036;-48
2023/07/31 09:01:48;;;;;;;1.70;1.50;;;28.00;99.90;;;;;;5066675;28;20020;-46
2023/07/31 09:04:18;;;;;;;5.65;1.75;;;28.00;99.90;;;;;;5066749;28;20186;-48
2023/07/31 09:06:48;;;;;;;4.40;1.73;;;28.00;99.90;;;;;;5066223;28;20041;-48
2023/07/31 09:09:15;;;;;;;2.63;1.60;;;28.00;99.90;;;;;;5066379;28;20033;-49
2023/07/31 09:11:41;;;;;;;3.83;1.70;;;;;;;;;;5066017;28;20032;-49
2023/07/31 09:14:09;;;;;;;3.53;1.92;;;;;;;;;;5066165;28;20074;-53
2023/07/31 09:16:36;;;;;;;4.65;1.80;;;;;;;;;;5065789;28;20029;-45
2023/07/31 09:19:04;;;;;;;4.28;1.85;;;;;;;;;;5065754;28;20043;-51
2023/07/31 09:21:31;;;;;;;2.53;1.52;;;;;;;;;;5066014;28;20305;-47
2023/07/31 09:23:58;;;;;;;5.28;2.03;;;;;;;;;;5066133;28;20036;-50
2023/07/31 09:26:31;;;;;;;5.15;1.58;;;;;;;;;;5065812;28;20048;-46
2023/07/31 09:28:59;;;;;;;3.50;1.80;;;;;;;;;;5066154;28;20092;-48
2023/07/31 09:31:40;;;;;;;5.53;2.05;;;;;;;;;;5065689;28;20083;-49
2023/07/31 09:34:06;;;;;;;3.42;1.60;;;;;;;;;;5065839;28;20092;-51
2023/07/31 09:36:33;;;;;;;4.85;1.85;;;;;;;;;;5065690;28;20071;-52
2023/07/31 09:39:05;;;;;;;4.40;1.80;;;;;;;;;;5066121;28;20205;-47
2023/07/31 09:41:32;;;;;;;7.05;3.30;;;;;;;;;;5065693;28;20317;-54
2023/07/31 09:43:59;;;;;;;4.60;3.00;;;;;;;;;;5065413;28;20376;-56
2023/07/31 09:46:27;;;;;;;4.70;3.30;;;;;;;;;;5065511;28;20017;-52
2023/07/31 09:48:54;;;;;;;5.60;3.42;;;;;;;;;;5065797;28;20105;-52
2023/07/31 09:51:27;;;;;;;8.60;3.10;;;;;;;;;;5065971;28;20194;-51
2023/07/31 09:53:54;;;;;;;7.20;2.63;;;28.30;99.90;;;;;;5064300;28;20313;-49
2023/07/31 09:56:26;;;;;;;9.98;2.50;;;28.00;99.90;;;;;;5064468;28;20352;-45
2023/07/31 09:58:54;;;;;;;4.43;2.40;;;28.10;99.90;;;;;;5064090;28;20048;-50
2023/07/31 10:01:20;;;;;;;4.93;2.20;;;28.00;99.90;;;;;;5065003;28;20092;-46
2023/07/31 10:03:47;;;;;;;5.53;2.30;;;28.10;99.90;;;;;;5065205;28;20067;-47
2023/07/31 10:06:18;;;;;;;3.83;2.22;;;28.00;99.90;;;;;;5064990;28;20048;-48
2023/07/31 10:08:48;;;;;;;2.38;1.77;;;28.00;99.90;;;;;;5065214;28;20040;-44
2023/07/31 10:11:15;;;;;;;4.20;3.00;;;28.10;99.90;;;;;;5064833;28;20029;-45
2023/07/31 10:13:43;;;;;;;2.92;2.28;;;28.10;99.90;;;;;;5065332;28;20033;-53
2023/07/31 10:16:10;;;;;;;5.82;2.55;;;28.10;99.90;;;;;;5064888;28;20084;-48
2023/07/31 10:18:38;;;;;;;6.30;2.33;;;27.80;99.90;;;;;;5064616;28;20021;-50
2023/07/31 10:21:05;;;;;;;4.93;2.20;;;28.10;99.90;;;;;;5064943;28;20037;-49
2023/07/31 10:23:32;;;;;;;3.55;2.30;;;28.10;99.90;;;;;;5064945;28;20009;-51
2023/07/31 10:26:01;;;;;;;6.13;2.30;;;28.20;99.90;;;;;;5064586;28;20039;-55
2023/07/31 10:28:29;;;;;;;5.65;2.30;;;28.10;99.90;;;;;;5065023;28;20024;-48
2023/07/31 10:30:56;;;;;;;5.40;2.28;;;28.10;99.90;;;;;;5064825;28;20025;-58
2023/07/31 10:33:22;;;;;;;6.60;2.53;;;28.10;99.90;;;;;;5065239;28;20063;-48
2023/07/31 10:35:49;;;;;;;4.65;2.88;;;28.20;99.90;;;;;;5064695;28;20033;-48
2023/07/31 10:38:16;;;;;;;4.55;2.53;;;28.20;99.90;;;;;;5064763;28;20053;-55
2023/07/31 10:40:43;;;;;;;7.22;2.85;;;28.10;99.90;;;;;;5064421;28;20029;-50
2023/07/31 10:43:11;;;;;;;7.07;2.80;;;28.10;99.90;;;;;;5064493;28;20032;-53
2023/07/31 10:45:38;;;;;;;5.95;2.80;;;28.10;99.90;;;;;;5064255;28;20027;-49
2023/07/31 10:48:07;;;;;;;4.55;3.22;;;28.20;99.90;;;;;;5064512;28;20079;-48
2023/07/31 10:50:39;;;;;;;10.43;3.70;;;28.10;99.90;;;;;;5064464;28;20041;-47
2023/07/31 10:53:07;;;;;;;6.18;3.78;;;28.20;99.90;;;;;;5064754;28;20028;-49
2023/07/31 10:55:41;;;;;;;7.70;3.38;;;28.20;99.90;;;;;;5063616;28;20036;-50
2023/07/31 10:58:13;;;;;;;5.32;3.33;;;28.20;99.90;;;;;;5063292;28;20033;-47
2023/07/31 11:00:44;;;;;;;6.20;3.20;;;28.20;99.90;;;;;;5064351;28;20219;-49
2023/07/31 11:03:15;;;;;;;8.07;4.32;;;28.30;99.90;;;;;;5063840;28;20032;-52
2023/07/31 11:05:55;;;;;;;5.82;3.65;;;28.10;99.90;;;;;;5064327;28;20224;-50
2023/07/31 11:08:24;;;;;;;6.32;3.63;;;28.20;99.90;;;;;;5063618;28;20095;-47
2023/07/31 11:10:53;;;;;;;7.00;4.18;;;;;;;;;;5063839;28;20359;-48
2023/07/31 11:13:20;;;;;;;8.93;4.03;;;28.10;99.90;;;;;;5064076;28;20028;-46
2023/07/31 11:15:47;;;;;;;8.52;3.50;;;28.30;99.90;;;;;;5064040;28;20029;-51
2023/07/31 11:18:13;;;;;;;7.85;4.03;;;28.20;99.90;;;;;;5064008;28;20033;-47
2023/07/31 11:20:43;;;;;;;6.30;3.75;;;28.20;99.90;;;;;;5064003;28;20032;-56
2023/07/31 11:23:12;;;;;;;19.63;3.63;;;;;;;;;;5064277;28;20025;-51
2023/07/31 11:25:43;;;;;;;8.25;3.50;;;;;;;;;;5064758;28;20033;-50
2023/07/31 11:28:16;;;;;;;6.07;3.35;;;;;;;;;;5064105;28;20035;-52
2023/07/31 11:30:43;;;;;;;6.13;3.08;;;;;;;;;;5063972;28;20037;-50
2023/07/31 11:33:11;;;;;;;8.27;4.05;;;;;;;;;;5064325;28;20029;-53
2023/07/31 11:35:44;;;;;;;7.35;3.40;;;;;;;;;;5063896;28;20336;-49
2023/07/31 11:38:12;;;;;;;5.53;3.10;;;;;;;;;;5064016;28;20098;-51
2023/07/31 11:40:42;;;;;;;6.05;3.35;;;;;;;;;;5063582;28;20225;-50
2023/07/31 11:43:11;;;;;;;7.68;3.28;;;;;;;;;;5043646;28;20044;-50
2023/07/31 11:45:40;;;;;;;5.13;2.90;;;;;;;;;;5043576;28;20233;-48
2023/07/31 11:48:07;;;;;;;5.10;2.97;;;;;;;;;;5043600;28;20072;-48
2023/07/31 11:50:34;;;;;;;4.15;3.15;;;;;;;;;;5043792;28;20022;-51
2023/07/31 11:53:04;;;;;;;4.35;3.03;;;;;;;;;;5044394;28;20100;-49
2023/07/31 11:55:31;;;;;;;6.28;2.97;;;;;;;;;;5043627;28;20072;-48
2023/07/31 11:57:58;;;;;;;5.40;2.95;;;;;;;;;;5043841;28;20021;-52
2023/07/31 12:00:27;;;;;;;5.90;3.20;;;28.50;99.90;;;;;;5043742;28;20034;-49
2023/07/31 12:02:54;;;;;;;3.25;2.95;;;28.20;99.90;;;;;;5043610;28;20026;-52
2023/07/31 12:05:23;;;;;;;5.60;3.17;;;28.30;99.90;;;;;;5043649;28;20033;-51
2023/07/31 12:07:52;;;;;;;7.28;3.15;;;28.30;99.90;;;;;;5044053;28;20278;-49
2023/07/31 12:10:32;;;;;;;3.53;3.03;;;;;;;;;;5043551;28;20037;-50
2023/07/31 12:13:05;;;;;;;5.15;3.40;;;28.40;99.90;;;;;;5043870;28;20029;-50
2023/07/31 12:15:35;;;;;;;;;;;28.30;99.90;;;;;;5044175;28;20034;-50
2023/07/31 12:18:06;;;;;;;6.70;3.50;;;28.30;99.90;;;;;;5044284;28;19913;-51
2023/07/31 12:20:34;;;;;;;3.97;3.40;;;28.40;99.90;;;;;;5059605;28;20066;-51
2023/07/31 12:23:00;;;;;;;5.88;3.92;;;28.40;99.90;;;;;;5084723;28;20099;-47
2023/07/31 12:25:33;;;;;;;7.82;4.68;;;28.50;99.90;;;;;;5067355;28;20221;-49
2023/07/31 12:28:11;;;;;;;6.57;4.55;;;28.50;99.90;;;;;;5066967;28;20067;-52
2023/07/31 12:30:39;;;;;;;4.80;4.28;;;28.50;99.90;;;;;;5059781;28;20313;-46
2023/07/31 12:33:12;;;;;;;5.45;4.90;;;28.60;99.90;;;;;;5047549;28;20025;-51
2023/07/31 12:35:42;;;;;;;6.50;4.30;;;28.50;99.90;;;;;;5046899;28;20107;-57
2023/07/31 12:38:09;;;;;;;6.35;5.35;;;;;;;;;;5047232;28;20183;-49
2023/07/31 12:40:37;;;;;;;7.05;4.72;;;;;;;;;;5047132;28;20048;-51
2023/07/31 12:43:03;;;;;;;8.20;4.97;;;;;;;;;;5046721;28;20097;-51
2023/07/31 12:45:31;;;;;;;10.18;4.88;;;;;;;;;;5046508;28;20034;-50
2023/07/31 12:47:58;;;;;;;8.00;4.72;;;;;;;;;;5046916;28;20079;-50
2023/07/31 12:50:25;;;;;;;5.30;4.80;;;;;;;;;;5046787;28;20100;-48
2023/07/31 12:53:00;;;;;;;5.63;4.75;;;;;;;;;;5046931;28;20022;-49
2023/07/31 12:55:30;;;;;;;8.07;4.75;;;;;;;;;;5046650;28;20034;-54
2023/07/31 12:57:58;;;;;;;6.35;4.43;;;;;;;;;;5046736;28;20084;-49
2023/07/31 13:00:26;;;;;;;5.90;4.60;;;;;;;;;;5046836;28;20037;-47
2023/07/31 13:02:55;;;;;;;5.30;4.70;;;;;;;;;;5046579;28;20041;-51
2023/07/31 13:05:22;;;;;;;8.52;4.60;;;;;;;;;;5046538;28;20293;-49
2023/07/31 13:07:50;;;;;;;6.68;4.38;;;;;;;;;;5046498;28;20100;-47
2023/07/31 13:10:17;;;;;;;7.03;4.47;;;;;;;;;;5046478;28;20028;-55
2023/07/31 13:12:44;;;;;;;6.80;4.63;;;;;;;;;;5062667;28;20067;-56
2023/07/31 13:15:12;;;;;;;8.75;4.80;;;;;;;;;;5046203;28;20038;-46
2023/07/31 13:17:38;;;;;;;6.22;4.65;;;;;;;;;;5045809;28;20036;-47
2023/07/31 13:20:05;;;;;;;9.18;5.15;;;;;;;;;;5045837;28;20080;-52
2023/07/31 13:22:32;;;;;;;5.95;5.10;;;;;;;;;;5046236;28;20201;-48
2023/07/31 13:24:59;;;;;;;5.90;5.22;;;;;;;;;;5045953;28;20057;-50
2023/07/31 13:27:26;;;;;;;5.65;5.00;;;;;;;;;;5046542;28;20028;-48
2023/07/31 13:29:54;;;;;;;13.00;5.38;;;;;;;;;;5063383;28;20071;-45
2023/07/31 13:32:21;;;;;;;7.32;4.70;;;;;;;;;;5065424;28;20032;-46
2023/07/31 13:34:48;;;;;;;8.10;5.47;;;;;;;;;;5065835;28;20029;-47
2023/07/31 13:37:15;;;;;;;7.55;5.13;;;;;;;;;;5065962;28;20033;-47
2023/07/31 13:39:42;;;;;;;12.57;5.75;;;;;;;;;;5065332;28;20056;-46
2023/07/31 13:42:11;;;;;;;14.95;6.05;;;;;;;;;;5066047;28;20020;-47
2023/07/31 13:44:39;;;;;;;8.93;5.53;;;;;;;;;;5065404;28;20067;-49
2023/07/31 13:47:05;;;;;;;11.88;6.18;;;;;;;;;;5065721;28;20099;-50
2023/07/31 13:49:33;;;;;;;13.50;6.40;;;;;;;;;;5065742;28;20088;-47
2023/07/31 13:51:59;;;;;;;20.73;7.78;;;;;;;;;;5065274;28;20021;-45
2023/07/31 13:54:26;;;;;;;12.90;5.82;;;;;;;;;;5065310;28;20075;-47
2023/07/31 13:56:53;;;;;;;13.30;6.10;;;28.50;99.90;;;;;;5065468;28;20079;-50
2023/07/31 13:59:20;;;;;;;17.73;5.97;;;28.40;99.90;;;;;;5065700;28;20040;-48
2023/07/31 14:01:47;;;;;;;12.52;6.05;;;28.40;99.90;;;;;;5064970;28;20021;-46
2023/07/31 14:04:14;;;;;;;6.72;5.70;;;;;;;;;;5065396;28;20036;-49
2023/07/31 14:06:41;;;;;;;15.85;6.68;;;28.50;99.90;;;;;;5063555;28;20040;-50
2023/07/31 14:09:07;;;;;;;15.73;6.38;;;28.40;99.90;;;;;;5044872;28;20037;-45
2023/07/31 14:11:34;;;;;;;16.42;6.80;;;28.50;99.90;;;;;;5045091;28;20026;-51
2023/07/31 14:14:01;;;;;;;11.90;6.95;;;;;;;;;;5045482;28;20043;-50
2023/07/31 14:16:28;;;;;;;15.55;6.78;;;;;;;;;;5045363;28;20029;-51